sensor_id;sensor_type;location;lat;lon;timestamp;P1;durP1;ratioP1;P2;durP2;ratioP2
66521;SDS011;53349;53.538;8.584;2022-09-17T00:00:59;14.63;;;1.38;;
66521;SDS011;53349;53.538;8.584;2022-09-17T00:03:25;16.17;;;2.00;;
66521;SDS011;53349;53.538;8.584;2022-09-17T00:06:02;15.70;;;2.10;;
66521;SDS011;53349;53.538;8.584;2022-09-17T00:08:32;13.30;;;2.00;;
66521;SDS011;53349;53.538;8.584;2022-09-17T00:11:04;11.85;;;1.40;;
66521;SDS011;53349;53.538;8.584;2022-09-17T00:13:32;13.23;;;1.80;;
66521;SDS011;53349;53.538;8.584;2022-09-17T00:15:57;17.80;;;1.77;;
66521;SDS011;53349;53.538;8.584;2022-09-17T00:18:23;14.83;;;2.13;;
66521;SDS011;53349;53.538;8.584;2022-09-17T00:20:48;17.93;;;1.73;;
66521;SDS011;53349;53.538;8.584;2022-09-17T00:23:13;12.57;;;2.10;;
66521;SDS011;53349;53.538;8.584;2022-09-17T00:25:42;15.40;;;2.08;;
66521;SDS011;53349;53.538;8.584;2022-09-17T00:28:09;14.45;;;1.70;;
66521;SDS011;53349;53.538;8.584;2022-09-17T00:30:38;13.23;;;1.60;;
66521;SDS011;53349;53.538;8.584;2022-09-17T00:33:08;14.68;;;1.75;;
66521;SDS011;53349;53.538;8.584;2022-09-17T00:35:36;18.17;;;1.90;;
66521;SDS011;53349;53.538;8.584;2022-09-17T00:38:01;13.37;;;1.47;;
66521;SDS011;53349;53.538;8.584;2022-09-17T00:40:27;11.13;;;1.33;;
66521;SDS011;53349;53.538;8.584;2022-09-17T00:42:52;9.52;;;1.20;;
66521;SDS011;53349;53.538;8.584;2022-09-17T00:45:18;11.60;;;1.10;;
66521;SDS011;53349;53.538;8.584;2022-09-17T00:47:44;9.20;;;1.30;;
66521;SDS011;53349;53.538;8.584;2022-09-17T00:52:57;12.85;;;1.30;;
66521;SDS011;53349;53.538;8.584;2022-09-17T00:55:31;8.25;;;1.10;;
66521;SDS011;53349;53.538;8.584;2022-09-17T00:58:01;6.38;;;0.75;;
66521;SDS011;53349;53.538;8.584;2022-09-17T01:00:29;11.55;;;1.25;;
66521;SDS011;53349;53.538;8.584;2022-09-17T01:02:56;15.90;;;1.77;;
66521;SDS011;53349;53.538;8.584;2022-09-17T01:08:13;13.57;;;2.15;;
66521;SDS011;53349;53.538;8.584;2022-09-17T01:13:38;14.32;;;1.73;;
66521;SDS011;53349;53.538;8.584;2022-09-17T01:18:58;12.13;;;1.50;;
66521;SDS011;53349;53.538;8.584;2022-09-17T01:21:45;12.77;;;1.77;;
66521;SDS011;53349;53.538;8.584;2022-09-17T01:35:52;10.52;;;1.30;;
66521;SDS011;53349;53.538;8.584;2022-09-17T01:38:37;16.85;;;1.98;;
66521;SDS011;53349;53.538;8.584;2022-09-17T01:44:07;8.25;;;1.05;;
66521;SDS011;53349;53.538;8.584;2022-09-17T01:47:11;11.60;;;1.55;;
66521;SDS011;53349;53.538;8.584;2022-09-17T01:49:50;10.05;;;1.27;;
66521;SDS011;53349;53.538;8.584;2022-09-17T01:52:19;13.77;;;1.60;;
66521;SDS011;53349;53.538;8.584;2022-09-17T01:54:46;9.82;;;1.13;;
66521;SDS011;53349;53.538;8.584;2022-09-17T02:00:32;6.78;;;0.68;;
66521;SDS011;53349;53.538;8.584;2022-09-17T02:05:28;8.77;;;1.13;;
66521;SDS011;53349;53.538;8.584;2022-09-17T02:08:03;8.13;;;1.08;;
66521;SDS011;53349;53.538;8.584;2022-09-17T02:10:33;10.25;;;1.10;;
66521;SDS011;53349;53.538;8.584;2022-09-17T02:13:08;8.48;;;0.90;;
66521;SDS011;53349;53.538;8.584;2022-09-17T02:15:56;8.77;;;0.88;;
66521;SDS011;53349;53.538;8.584;2022-09-17T02:18:28;8.63;;;1.20;;
66521;SDS011;53349;53.538;8.584;2022-09-17T02:24:00;7.80;;;0.80;;
66521;SDS011;53349;53.538;8.584;2022-09-17T02:26:34;10.73;;;1.00;;
66521;SDS011;53349;53.538;8.584;2022-09-17T02:29:08;9.25;;;0.95;;
66521;SDS011;53349;53.538;8.584;2022-09-17T02:31:41;8.85;;;0.98;;
66521;SDS011;53349;53.538;8.584;2022-09-17T02:34:06;8.13;;;0.90;;
66521;SDS011;53349;53.538;8.584;2022-09-17T02:36:34;6.95;;;0.60;;
66521;SDS011;53349;53.538;8.584;2022-09-17T02:39:00;7.97;;;0.60;;
66521;SDS011;53349;53.538;8.584;2022-09-17T02:41:34;7.30;;;0.85;;
66521;SDS011;53349;53.538;8.584;2022-09-17T02:44:12;8.75;;;0.90;;
66521;SDS011;53349;53.538;8.584;2022-09-17T02:49:42;10.13;;;1.00;;
66521;SDS011;53349;53.538;8.584;2022-09-17T02:55:06;8.63;;;0.95;;
66521;SDS011;53349;53.538;8.584;2022-09-17T02:58:07;11.57;;;1.77;;
66521;SDS011;53349;53.538;8.584;2022-09-17T03:00:33;9.70;;;1.30;;
66521;SDS011;53349;53.538;8.584;2022-09-17T03:03:07;12.55;;;1.40;;
66521;SDS011;53349;53.538;8.584;2022-09-17T03:05:50;12.47;;;1.40;;
66521;SDS011;53349;53.538;8.584;2022-09-17T03:08:17;12.23;;;1.15;;
66521;SDS011;53349;53.538;8.584;2022-09-17T03:10:44;15.05;;;1.73;;
66521;SDS011;53349;53.538;8.584;2022-09-17T03:13:10;14.65;;;1.73;;
66521;SDS011;53349;53.538;8.584;2022-09-17T03:15:36;8.70;;;0.93;;
66521;SDS011;53349;53.538;8.584;2022-09-17T03:18:01;11.40;;;1.40;;
66521;SDS011;53349;53.538;8.584;2022-09-17T03:20:26;12.63;;;1.38;;
66521;SDS011;53349;53.538;8.584;2022-09-17T03:22:52;11.43;;;0.93;;
66521;SDS011;53349;53.538;8.584;2022-09-17T03:25:17;10.67;;;1.20;;
66521;SDS011;53349;53.538;8.584;2022-09-17T03:27:43;7.63;;;0.97;;
66521;SDS011;53349;53.538;8.584;2022-09-17T03:30:08;8.77;;;1.23;;
66521;SDS011;53349;53.538;8.584;2022-09-17T03:32:34;6.63;;;0.90;;
66521;SDS011;53349;53.538;8.584;2022-09-17T03:34:59;14.67;;;1.30;;
66521;SDS011;53349;53.538;8.584;2022-09-17T03:37:24;12.37;;;1.43;;
66521;SDS011;53349;53.538;8.584;2022-09-17T03:39:50;5.97;;;0.97;;
66521;SDS011;53349;53.538;8.584;2022-09-17T03:42:15;7.80;;;0.93;;
66521;SDS011;53349;53.538;8.584;2022-09-17T03:44:41;4.28;;;0.52;;
66521;SDS011;53349;53.538;8.584;2022-09-17T03:47:06;3.27;;;0.50;;
66521;SDS011;53349;53.538;8.584;2022-09-17T03:49:32;4.20;;;0.50;;
66521;SDS011;53349;53.538;8.584;2022-09-17T03:51:57;6.95;;;0.80;;
66521;SDS011;53349;53.538;8.584;2022-09-17T03:54:23;4.97;;;0.70;;
66521;SDS011;53349;53.538;8.584;2022-09-17T03:56:49;6.95;;;0.88;;
66521;SDS011;53349;53.538;8.584;2022-09-17T03:59:15;10.57;;;0.87;;
66521;SDS011;53349;53.538;8.584;2022-09-17T04:01:40;8.93;;;1.20;;
66521;SDS011;53349;53.538;8.584;2022-09-17T04:04:06;8.43;;;1.53;;
66521;SDS011;53349;53.538;8.584;2022-09-17T04:06:31;9.48;;;1.63;;
66521;SDS011;53349;53.538;8.584;2022-09-17T04:08:57;11.40;;;0.88;;
66521;SDS011;53349;53.538;8.584;2022-09-17T04:11:24;8.25;;;0.93;;
66521;SDS011;53349;53.538;8.584;2022-09-17T04:13:50;12.43;;;1.20;;
66521;SDS011;53349;53.538;8.584;2022-09-17T04:16:15;16.03;;;1.50;;
66521;SDS011;53349;53.538;8.584;2022-09-17T04:18:41;13.53;;;1.40;;
66521;SDS011;53349;53.538;8.584;2022-09-17T04:21:06;6.67;;;1.00;;
66521;SDS011;53349;53.538;8.584;2022-09-17T04:23:31;10.75;;;1.17;;
66521;SDS011;53349;53.538;8.584;2022-09-17T04:25:57;11.83;;;1.20;;
66521;SDS011;53349;53.538;8.584;2022-09-17T04:28:22;9.40;;;1.07;;
66521;SDS011;53349;53.538;8.584;2022-09-17T04:30:48;9.80;;;1.17;;
66521;SDS011;53349;53.538;8.584;2022-09-17T04:33:13;10.35;;;1.10;;
66521;SDS011;53349;53.538;8.584;2022-09-17T04:35:39;12.33;;;1.57;;
66521;SDS011;53349;53.538;8.584;2022-09-17T04:38:04;13.30;;;1.33;;
66521;SDS011;53349;53.538;8.584;2022-09-17T04:40:30;10.43;;;1.57;;
66521;SDS011;53349;53.538;8.584;2022-09-17T04:42:55;13.07;;;1.10;;
66521;SDS011;53349;53.538;8.584;2022-09-17T04:45:23;10.70;;;1.20;;
66521;SDS011;53349;53.538;8.584;2022-09-17T04:47:49;11.68;;;0.90;;
66521;SDS011;53349;53.538;8.584;2022-09-17T04:50:15;6.80;;;0.90;;
66521;SDS011;53349;53.538;8.584;2022-09-17T04:52:44;6.35;;;0.95;;
66521;SDS011;53349;53.538;8.584;2022-09-17T04:55:10;7.50;;;0.93;;
66521;SDS011;53349;53.538;8.584;2022-09-17T04:57:36;7.53;;;0.90;;
66521;SDS011;53349;53.538;8.584;2022-09-17T05:00:03;8.55;;;1.20;;
66521;SDS011;53349;53.538;8.584;2022-09-17T05:02:32;4.72;;;0.80;;
66521;SDS011;53349;53.538;8.584;2022-09-17T05:04:57;11.13;;;1.13;;
66521;SDS011;53349;53.538;8.584;2022-09-17T05:07:23;4.82;;;0.63;;
66521;SDS011;53349;53.538;8.584;2022-09-17T05:09:49;11.00;;;0.93;;
66521;SDS011;53349;53.538;8.584;2022-09-17T05:12:14;10.17;;;0.90;;
66521;SDS011;53349;53.538;8.584;2022-09-17T05:14:39;9.57;;;0.98;;
66521;SDS011;53349;53.538;8.584;2022-09-17T05:17:05;13.40;;;1.40;;
66521;SDS011;53349;53.538;8.584;2022-09-17T05:19:30;6.13;;;0.90;;
66521;SDS011;53349;53.538;8.584;2022-09-17T05:21:56;10.77;;;1.10;;
66521;SDS011;53349;53.538;8.584;2022-09-17T05:24:21;7.10;;;0.90;;
66521;SDS011;53349;53.538;8.584;2022-09-17T05:26:46;8.80;;;1.10;;
66521;SDS011;53349;53.538;8.584;2022-09-17T05:29:12;9.00;;;1.17;;
66521;SDS011;53349;53.538;8.584;2022-09-17T05:31:37;12.83;;;1.30;;
66521;SDS011;53349;53.538;8.584;2022-09-17T05:34:02;7.60;;;1.00;;
66521;SDS011;53349;53.538;8.584;2022-09-17T05:36:28;8.57;;;1.20;;
66521;SDS011;53349;53.538;8.584;2022-09-17T05:38:53;12.93;;;1.10;;
66521;SDS011;53349;53.538;8.584;2022-09-17T05:41:19;8.80;;;1.23;;
66521;SDS011;53349;53.538;8.584;2022-09-17T05:43:44;9.25;;;1.05;;
66521;SDS011;53349;53.538;8.584;2022-09-17T05:46:10;7.13;;;0.90;;
66521;SDS011;53349;53.538;8.584;2022-09-17T05:48:35;9.83;;;1.00;;
66521;SDS011;53349;53.538;8.584;2022-09-17T05:51:00;12.53;;;1.10;;
66521;SDS011;53349;53.538;8.584;2022-09-17T05:53:26;6.80;;;0.80;;
66521;SDS011;53349;53.538;8.584;2022-09-17T05:55:54;10.20;;;1.00;;
66521;SDS011;53349;53.538;8.584;2022-09-17T05:58:23;10.70;;;1.20;;
66521;SDS011;53349;53.538;8.584;2022-09-17T06:00:49;9.53;;;0.90;;
66521;SDS011;53349;53.538;8.584;2022-09-17T06:03:15;14.70;;;1.10;;
66521;SDS011;53349;53.538;8.584;2022-09-17T06:05:42;10.52;;;0.82;;
66521;SDS011;53349;53.538;8.584;2022-09-17T06:08:16;7.20;;;1.53;;
66521;SDS011;53349;53.538;8.584;2022-09-17T06:10:41;12.02;;;1.15;;
66521;SDS011;53349;53.538;8.584;2022-09-17T06:13:06;7.82;;;1.00;;
66521;SDS011;53349;53.538;8.584;2022-09-17T06:15:32;13.87;;;1.50;;
66521;SDS011;53349;53.538;8.584;2022-09-17T06:17:58;9.63;;;1.53;;
66521;SDS011;53349;53.538;8.584;2022-09-17T06:20:23;9.18;;;1.10;;
66521;SDS011;53349;53.538;8.584;2022-09-17T06:22:48;11.50;;;1.17;;
66521;SDS011;53349;53.538;8.584;2022-09-17T06:25:20;12.07;;;1.20;;
66521;SDS011;53349;53.538;8.584;2022-09-17T06:27:45;12.17;;;1.27;;
66521;SDS011;53349;53.538;8.584;2022-09-17T06:30:10;12.67;;;1.30;;
66521;SDS011;53349;53.538;8.584;2022-09-17T06:32:36;12.07;;;1.20;;
66521;SDS011;53349;53.538;8.584;2022-09-17T06:35:01;11.90;;;1.40;;
66521;SDS011;53349;53.538;8.584;2022-09-17T06:37:27;9.68;;;1.20;;
66521;SDS011;53349;53.538;8.584;2022-09-17T06:39:54;15.13;;;1.60;;
66521;SDS011;53349;53.538;8.584;2022-09-17T06:42:19;13.30;;;1.45;;
66521;SDS011;53349;53.538;8.584;2022-09-17T06:44:45;10.10;;;1.33;;
66521;SDS011;53349;53.538;8.584;2022-09-17T06:47:10;7.60;;;1.40;;
66521;SDS011;53349;53.538;8.584;2022-09-17T06:49:35;8.23;;;1.00;;
66521;SDS011;53349;53.538;8.584;2022-09-17T06:52:01;11.87;;;1.33;;
66521;SDS011;53349;53.538;8.584;2022-09-17T06:54:30;8.88;;;1.10;;
66521;SDS011;53349;53.538;8.584;2022-09-17T06:56:55;11.27;;;0.90;;
66521;SDS011;53349;53.538;8.584;2022-09-17T06:59:20;11.00;;;1.10;;
66521;SDS011;53349;53.538;8.584;2022-09-17T07:01:46;11.63;;;1.17;;
66521;SDS011;53349;53.538;8.584;2022-09-17T07:04:11;11.07;;;1.37;;
66521;SDS011;53349;53.538;8.584;2022-09-17T07:06:38;14.13;;;1.55;;
66521;SDS011;53349;53.538;8.584;2022-09-17T07:09:03;14.17;;;1.40;;
66521;SDS011;53349;53.538;8.584;2022-09-17T07:11:29;7.25;;;0.95;;
66521;SDS011;53349;53.538;8.584;2022-09-17T07:13:56;10.90;;;1.02;;
66521;SDS011;53349;53.538;8.584;2022-09-17T07:16:21;6.63;;;0.70;;
66521;SDS011;53349;53.538;8.584;2022-09-17T07:18:48;9.25;;;1.60;;
66521;SDS011;53349;53.538;8.584;2022-09-17T07:21:13;6.10;;;0.70;;
66521;SDS011;53349;53.538;8.584;2022-09-17T07:23:38;7.30;;;0.87;;
66521;SDS011;53349;53.538;8.584;2022-09-17T07:26:07;4.27;;;0.60;;
66521;SDS011;53349;53.538;8.584;2022-09-17T07:28:37;5.55;;;0.77;;
66521;SDS011;53349;53.538;8.584;2022-09-17T07:31:03;8.27;;;0.73;;
66521;SDS011;53349;53.538;8.584;2022-09-17T07:33:29;5.20;;;1.00;;
66521;SDS011;53349;53.538;8.584;2022-09-17T07:35:56;5.05;;;0.60;;
66521;SDS011;53349;53.538;8.584;2022-09-17T07:38:23;6.15;;;0.90;;
66521;SDS011;53349;53.538;8.584;2022-09-17T07:40:58;9.17;;;0.83;;
66521;SDS011;53349;53.538;8.584;2022-09-17T07:43:26;7.07;;;0.70;;
66521;SDS011;53349;53.538;8.584;2022-09-17T07:45:53;8.63;;;0.80;;
66521;SDS011;53349;53.538;8.584;2022-09-17T07:48:20;7.40;;;0.82;;
66521;SDS011;53349;53.538;8.584;2022-09-17T07:50:46;5.50;;;0.47;;
66521;SDS011;53349;53.538;8.584;2022-09-17T07:53:11;7.17;;;0.73;;
66521;SDS011;53349;53.538;8.584;2022-09-17T07:55:37;6.53;;;0.60;;
66521;SDS011;53349;53.538;8.584;2022-09-17T07:58:03;3.63;;;0.70;;
66521;SDS011;53349;53.538;8.584;2022-09-17T08:00:28;5.05;;;0.52;;
66521;SDS011;53349;53.538;8.584;2022-09-17T08:02:54;4.40;;;0.50;;
66521;SDS011;53349;53.538;8.584;2022-09-17T08:05:22;3.78;;;0.60;;
66521;SDS011;53349;53.538;8.584;2022-09-17T08:07:52;4.80;;;0.60;;
66521;SDS011;53349;53.538;8.584;2022-09-17T08:10:20;3.95;;;0.60;;
66521;SDS011;53349;53.538;8.584;2022-09-17T08:12:53;5.18;;;0.70;;
66521;SDS011;53349;53.538;8.584;2022-09-17T08:15:20;4.65;;;0.57;;
66521;SDS011;53349;53.538;8.584;2022-09-17T08:17:46;9.57;;;0.87;;
66521;SDS011;53349;53.538;8.584;2022-09-17T08:20:12;10.75;;;0.95;;
66521;SDS011;53349;53.538;8.584;2022-09-17T08:22:38;8.30;;;1.30;;
66521;SDS011;53349;53.538;8.584;2022-09-17T08:25:05;11.23;;;1.40;;
66521;SDS011;53349;53.538;8.584;2022-09-17T08:27:31;10.02;;;0.88;;
66521;SDS011;53349;53.538;8.584;2022-09-17T08:29:57;11.57;;;1.00;;
66521;SDS011;53349;53.538;8.584;2022-09-17T08:32:23;12.07;;;0.90;;
66521;SDS011;53349;53.538;8.584;2022-09-17T08:34:49;8.57;;;0.90;;
66521;SDS011;53349;53.538;8.584;2022-09-17T08:37:14;11.45;;;0.90;;
66521;SDS011;53349;53.538;8.584;2022-09-17T08:39:40;5.63;;;0.70;;
66521;SDS011;53349;53.538;8.584;2022-09-17T08:42:14;12.93;;;0.90;;
66521;SDS011;53349;53.538;8.584;2022-09-17T08:44:46;10.38;;;0.75;;
66521;SDS011;53349;53.538;8.584;2022-09-17T09:01:06;2.97;;;0.32;;
66521;SDS011;53349;53.538;8.584;2022-09-17T09:03:56;2.40;;;0.20;;
66521;SDS011;53349;53.538;8.584;2022-09-17T09:07:01;4.93;;;0.20;;
66521;SDS011;53349;53.538;8.584;2022-09-17T09:09:57;1.97;;;0.20;;
66521;SDS011;53349;53.538;8.584;2022-09-17T09:12:25;7.45;;;0.43;;
66521;SDS011;53349;53.538;8.584;2022-09-17T09:14:57;3.42;;;0.35;;
66521;SDS011;53349;53.538;8.584;2022-09-17T09:17:27;2.20;;;0.35;;
66521;SDS011;53349;53.538;8.584;2022-09-17T09:19:58;5.32;;;0.47;;
66521;SDS011;53349;53.538;8.584;2022-09-17T09:22:27;3.23;;;0.30;;
66521;SDS011;53349;53.538;8.584;2022-09-17T09:27:44;4.78;;;0.30;;
66521;SDS011;53349;53.538;8.584;2022-09-17T09:30:25;2.53;;;0.30;;
66521;SDS011;53349;53.538;8.584;2022-09-17T09:33:11;5.35;;;0.50;;
66521;SDS011;53349;53.538;8.584;2022-09-17T09:35:40;5.45;;;0.85;;
66521;SDS011;53349;53.538;8.584;2022-09-17T09:40:40;2.92;;;0.47;;
66521;SDS011;53349;53.538;8.584;2022-09-17T09:43:20;5.60;;;0.80;;
66521;SDS011;53349;53.538;8.584;2022-09-17T09:51:29;7.70;;;0.50;;
66521;SDS011;53349;53.538;8.584;2022-09-17T09:56:34;6.97;;;0.83;;
66521;SDS011;53349;53.538;8.584;2022-09-17T09:59:11;19.25;;;1.30;;
66521;SDS011;53349;53.538;8.584;2022-09-17T10:01:39;16.13;;;1.08;;
66521;SDS011;53349;53.538;8.584;2022-09-17T10:06:53;10.73;;;1.13;;
66521;SDS011;53349;53.538;8.584;2022-09-17T10:09:24;21.98;;;1.42;;
66521;SDS011;53349;53.538;8.584;2022-09-17T10:12:01;11.02;;;1.00;;
66521;SDS011;53349;53.538;8.584;2022-09-17T10:14:30;12.80;;;1.15;;
66521;SDS011;53349;53.538;8.584;2022-09-17T10:20:07;10.90;;;1.23;;
66521;SDS011;53349;53.538;8.584;2022-09-17T10:22:44;18.25;;;1.10;;
66521;SDS011;53349;53.538;8.584;2022-09-17T10:27:43;7.05;;;1.20;;
66521;SDS011;53349;53.538;8.584;2022-09-17T10:32:36;7.23;;;0.73;;
66521;SDS011;53349;53.538;8.584;2022-09-17T10:35:05;9.05;;;0.98;;
66521;SDS011;53349;53.538;8.584;2022-09-17T10:37:50;11.97;;;1.23;;
66521;SDS011;53349;53.538;8.584;2022-09-17T10:42:45;8.52;;;1.00;;
66521;SDS011;53349;53.538;8.584;2022-09-17T10:45:33;13.32;;;1.38;;
66521;SDS011;53349;53.538;8.584;2022-09-17T10:48:00;11.35;;;1.23;;
66521;SDS011;53349;53.538;8.584;2022-09-17T10:50:29;13.53;;;1.70;;
66521;SDS011;53349;53.538;8.584;2022-09-17T10:53:01;10.98;;;1.45;;
66521;SDS011;53349;53.538;8.584;2022-09-17T10:58:22;8.68;;;0.90;;
66521;SDS011;53349;53.538;8.584;2022-09-17T11:01:14;10.15;;;1.15;;
66521;SDS011;53349;53.538;8.584;2022-09-17T11:17:34;15.30;;;1.40;;
66521;SDS011;53349;53.538;8.584;2022-09-17T11:20:27;12.48;;;1.23;;
66521;SDS011;53349;53.538;8.584;2022-09-17T11:22:57;13.48;;;1.48;;
66521;SDS011;53349;53.538;8.584;2022-09-17T11:25:43;14.55;;;1.33;;
66521;SDS011;53349;53.538;8.584;2022-09-17T11:29:04;13.80;;;1.13;;
66521;SDS011;53349;53.538;8.584;2022-09-17T11:31:26;8.18;;;1.30;;
66521;SDS011;53349;53.538;8.584;2022-09-17T11:34:15;19.02;;;1.60;;
66521;SDS011;53349;53.538;8.584;2022-09-17T11:36:49;10.55;;;1.13;;
66521;SDS011;53349;53.538;8.584;2022-09-17T11:39:41;12.65;;;1.42;;
66521;SDS011;53349;53.538;8.584;2022-09-17T11:42:17;9.80;;;1.20;;
66521;SDS011;53349;53.538;8.584;2022-09-17T11:44:53;14.35;;;1.42;;
66521;SDS011;53349;53.538;8.584;2022-09-17T11:47:28;11.82;;;1.40;;
66521;SDS011;53349;53.538;8.584;2022-09-17T11:50:13;13.93;;;1.75;;
66521;SDS011;53349;53.538;8.584;2022-09-17T11:53:06;13.75;;;1.60;;
66521;SDS011;53349;53.538;8.584;2022-09-17T11:55:41;9.73;;;1.67;;
66521;SDS011;53349;53.538;8.584;2022-09-17T11:58:25;10.30;;;1.42;;
66521;SDS011;53349;53.538;8.584;2022-09-17T12:01:03;11.20;;;1.52;;
66521;SDS011;53349;53.538;8.584;2022-09-17T12:03:34;10.80;;;1.80;;
66521;SDS011;53349;53.538;8.584;2022-09-17T12:06:35;16.48;;;1.38;;
66521;SDS011;53349;53.538;8.584;2022-09-17T12:09:21;13.60;;;1.65;;
66521;SDS011;53349;53.538;8.584;2022-09-17T12:14:37;15.38;;;1.50;;
66521;SDS011;53349;53.538;8.584;2022-09-17T12:17:33;12.52;;;1.73;;
66521;SDS011;53349;53.538;8.584;2022-09-17T12:20:02;14.80;;;2.28;;
66521;SDS011;53349;53.538;8.584;2022-09-17T12:22:34;10.30;;;1.58;;
66521;SDS011;53349;53.538;8.584;2022-09-17T12:25:03;11.10;;;2.00;;
66521;SDS011;53349;53.538;8.584;2022-09-17T12:30:21;11.80;;;1.40;;
66521;SDS011;53349;53.538;8.584;2022-09-17T12:35:43;15.68;;;1.75;;
66521;SDS011;53349;53.538;8.584;2022-09-17T12:38:22;12.80;;;1.67;;
66521;SDS011;53349;53.538;8.584;2022-09-17T13:01:00;13.48;;;1.33;;
66521;SDS011;53349;53.538;8.584;2022-09-17T13:03:39;10.20;;;1.77;;
66521;SDS011;53349;53.538;8.584;2022-09-17T13:09:17;18.38;;;2.28;;
66521;SDS011;53349;53.538;8.584;2022-09-17T13:12:09;11.52;;;1.48;;
66521;SDS011;53349;53.538;8.584;2022-09-17T13:18:11;13.60;;;1.45;;
66521;SDS011;53349;53.538;8.584;2022-09-17T13:20:48;11.98;;;1.23;;
66521;SDS011;53349;53.538;8.584;2022-09-17T13:23:28;9.75;;;1.65;;
66521;SDS011;53349;53.538;8.584;2022-09-17T13:25:56;15.13;;;2.22;;
66521;SDS011;53349;53.538;8.584;2022-09-17T13:28:34;10.48;;;1.30;;
66521;SDS011;53349;53.538;8.584;2022-09-17T13:31:01;12.52;;;1.58;;
66521;SDS011;53349;53.538;8.584;2022-09-17T13:39:07;10.63;;;1.85;;
66521;SDS011;53349;53.538;8.584;2022-09-17T13:41:38;11.98;;;1.50;;
66521;SDS011;53349;53.538;8.584;2022-09-17T13:44:07;12.90;;;1.65;;
66521;SDS011;53349;53.538;8.584;2022-09-17T13:46:35;16.10;;;1.80;;
66521;SDS011;53349;53.538;8.584;2022-09-17T13:49:03;10.43;;;1.80;;
66521;SDS011;53349;53.538;8.584;2022-09-17T13:54:01;16.97;;;1.97;;
66521;SDS011;53349;53.538;8.584;2022-09-17T13:56:33;15.73;;;1.55;;
66521;SDS011;53349;53.538;8.584;2022-09-17T13:59:06;14.25;;;1.42;;
66521;SDS011;53349;53.538;8.584;2022-09-17T14:09:59;14.32;;;1.30;;
66521;SDS011;53349;53.538;8.584;2022-09-17T14:12:50;11.93;;;1.20;;
66521;SDS011;53349;53.538;8.584;2022-09-17T14:23:34;11.70;;;1.55;;
66521;SDS011;53349;53.538;8.584;2022-09-17T14:26:09;11.05;;;1.35;;
66521;SDS011;53349;53.538;8.584;2022-09-17T14:28:42;9.77;;;1.40;;
66521;SDS011;53349;53.538;8.584;2022-09-17T14:31:24;13.38;;;1.70;;
66521;SDS011;53349;53.538;8.584;2022-09-17T14:33:55;16.67;;;1.70;;
66521;SDS011;53349;53.538;8.584;2022-09-17T14:36:20;14.70;;;1.30;;
66521;SDS011;53349;53.538;8.584;2022-09-17T14:38:50;13.85;;;1.65;;
66521;SDS011;53349;53.538;8.584;2022-09-17T14:41:20;11.73;;;1.30;;
66521;SDS011;53349;53.538;8.584;2022-09-17T14:46:23;10.57;;;1.20;;
66521;SDS011;53349;53.538;8.584;2022-09-17T14:48:51;12.63;;;1.27;;
66521;SDS011;53349;53.538;8.584;2022-09-17T14:53:43;10.60;;;1.33;;
66521;SDS011;53349;53.538;8.584;2022-09-17T14:56:10;15.02;;;1.58;;
66521;SDS011;53349;53.538;8.584;2022-09-17T14:58:48;16.55;;;1.92;;
66521;SDS011;53349;53.538;8.584;2022-09-17T15:01:21;12.90;;;1.87;;
66521;SDS011;53349;53.538;8.584;2022-09-17T15:06:38;23.98;;;2.63;;
66521;SDS011;53349;53.538;8.584;2022-09-17T15:09:17;14.63;;;2.00;;
66521;SDS011;53349;53.538;8.584;2022-09-17T15:11:46;10.48;;;1.60;;
66521;SDS011;53349;53.538;8.584;2022-09-17T15:14:20;9.63;;;1.20;;
66521;SDS011;53349;53.538;8.584;2022-09-17T15:16:51;11.48;;;1.05;;
66521;SDS011;53349;53.538;8.584;2022-09-17T15:22:08;13.75;;;1.65;;
66521;SDS011;53349;53.538;8.584;2022-09-17T15:30:41;11.82;;;1.73;;
66521;SDS011;53349;53.538;8.584;2022-09-17T15:33:08;13.97;;;1.60;;
66521;SDS011;53349;53.538;8.584;2022-09-17T15:35:36;13.95;;;1.40;;
66521;SDS011;53349;53.538;8.584;2022-09-17T15:40:51;7.78;;;0.80;;
66521;SDS011;53349;53.538;8.584;2022-09-17T15:43:28;13.95;;;1.10;;
66521;SDS011;53349;53.538;8.584;2022-09-17T15:45:55;9.00;;;1.08;;
66521;SDS011;53349;53.538;8.584;2022-09-17T15:51:03;9.60;;;1.20;;
66521;SDS011;53349;53.538;8.584;2022-09-17T15:53:37;7.38;;;1.00;;
66521;SDS011;53349;53.538;8.584;2022-09-17T15:56:06;13.30;;;1.60;;
66521;SDS011;53349;53.538;8.584;2022-09-17T16:09:02;9.98;;;1.30;;
66521;SDS011;53349;53.538;8.584;2022-09-17T16:11:29;7.40;;;0.70;;
66521;SDS011;53349;53.538;8.584;2022-09-17T16:13:56;9.20;;;0.90;;
66521;SDS011;53349;53.538;8.584;2022-09-17T16:16:24;10.95;;;1.40;;
66521;SDS011;53349;53.538;8.584;2022-09-17T16:18:56;7.47;;;1.00;;
66521;SDS011;53349;53.538;8.584;2022-09-17T16:21:21;11.43;;;0.97;;
66521;SDS011;53349;53.538;8.584;2022-09-17T16:23:46;14.80;;;1.40;;
66521;SDS011;53349;53.538;8.584;2022-09-17T16:26:19;9.03;;;1.20;;
66521;SDS011;53349;53.538;8.584;2022-09-17T16:28:48;11.90;;;1.17;;
66521;SDS011;53349;53.538;8.584;2022-09-17T16:31:17;8.35;;;1.08;;
66521;SDS011;53349;53.538;8.584;2022-09-17T16:33:42;9.53;;;1.53;;
66521;SDS011;53349;53.538;8.584;2022-09-17T16:36:07;10.10;;;1.70;;
66521;SDS011;53349;53.538;8.584;2022-09-17T16:38:33;12.73;;;1.17;;
66521;SDS011;53349;53.538;8.584;2022-09-17T16:41:03;10.15;;;1.17;;
66521;SDS011;53349;53.538;8.584;2022-09-17T16:43:29;6.40;;;1.17;;
66521;SDS011;53349;53.538;8.584;2022-09-17T16:45:58;14.03;;;1.20;;
66521;SDS011;53349;53.538;8.584;2022-09-17T16:48:24;7.78;;;1.10;;
66521;SDS011;53349;53.538;8.584;2022-09-17T16:50:50;8.60;;;1.13;;
66521;SDS011;53349;53.538;8.584;2022-09-17T16:53:16;5.93;;;0.77;;
66521;SDS011;53349;53.538;8.584;2022-09-17T16:55:42;4.43;;;0.70;;
66521;SDS011;53349;53.538;8.584;2022-09-17T16:58:07;6.87;;;0.73;;
66521;SDS011;53349;53.538;8.584;2022-09-17T17:00:32;7.97;;;1.27;;
66521;SDS011;53349;53.538;8.584;2022-09-17T17:02:58;7.15;;;1.40;;
66521;SDS011;53349;53.538;8.584;2022-09-17T17:05:24;8.93;;;0.97;;
66521;SDS011;53349;53.538;8.584;2022-09-17T17:07:50;8.60;;;1.00;;
66521;SDS011;53349;53.538;8.584;2022-09-17T17:10:16;12.67;;;1.30;;
66521;SDS011;53349;53.538;8.584;2022-09-17T17:12:42;8.25;;;1.10;;
66521;SDS011;53349;53.538;8.584;2022-09-17T17:15:08;8.00;;;1.10;;
66521;SDS011;53349;53.538;8.584;2022-09-17T17:17:34;7.10;;;1.00;;
66521;SDS011;53349;53.538;8.584;2022-09-17T17:20:00;6.90;;;1.00;;
66521;SDS011;53349;53.538;8.584;2022-09-17T17:22:33;11.47;;;1.17;;
66521;SDS011;53349;53.538;8.584;2022-09-17T17:24:58;8.45;;;0.93;;
66521;SDS011;53349;53.538;8.584;2022-09-17T17:27:24;7.43;;;1.20;;
66521;SDS011;53349;53.538;8.584;2022-09-17T17:29:49;12.67;;;1.50;;
66521;SDS011;53349;53.538;8.584;2022-09-17T17:32:14;11.03;;;1.33;;
66521;SDS011;53349;53.538;8.584;2022-09-17T17:34:40;8.93;;;0.90;;
66521;SDS011;53349;53.538;8.584;2022-09-17T17:37:05;6.85;;;1.05;;
66521;SDS011;53349;53.538;8.584;2022-09-17T17:39:30;10.07;;;1.20;;
66521;SDS011;53349;53.538;8.584;2022-09-17T17:41:56;5.97;;;0.87;;
66521;SDS011;53349;53.538;8.584;2022-09-17T17:44:21;7.43;;;1.17;;
66521;SDS011;53349;53.538;8.584;2022-09-17T17:46:47;6.60;;;0.80;;
66521;SDS011;53349;53.538;8.584;2022-09-17T17:49:12;8.60;;;1.02;;
66521;SDS011;53349;53.538;8.584;2022-09-17T17:51:38;8.93;;;1.30;;
66521;SDS011;53349;53.538;8.584;2022-09-17T17:54:03;6.97;;;0.90;;
66521;SDS011;53349;53.538;8.584;2022-09-17T17:56:29;5.00;;;0.90;;
66521;SDS011;53349;53.538;8.584;2022-09-17T17:58:55;8.63;;;0.80;;
66521;SDS011;53349;53.538;8.584;2022-09-17T18:01:26;4.57;;;0.55;;
66521;SDS011;53349;53.538;8.584;2022-09-17T18:03:56;11.90;;;1.20;;
66521;SDS011;53349;53.538;8.584;2022-09-17T18:06:23;8.82;;;0.90;;